Time;durP1;ratioP1;P1;durP2;ratioP2;P2;SDS_P1;SDS_P2;PMS_P1;PMS_P2;Temp;Humidity;BMP_temperature;BMP_pressure;BME280_temperature;BME280_humidity;BME280_pressure;Samples;Min_cycle;Max_cycle;Signal;HPM_P1;HPM_P2
2022/04/09 00:01:18;;;;;;;2.80;1.80;;;;;;;11.14;100.00;97356.00;5071310;28;20232;-78
2022/04/09 00:03:45;;;;;;;3.33;2.17;;;;;;;11.13;100.00;97357.06;5071521;28;20228;-78
2022/04/09 00:06:11;;;;;;;3.30;2.03;;;;;;;11.08;100.00;97350.94;5070509;28;20244;-78
2022/04/09 00:08:38;;;;;;;3.70;2.80;;;;;;;10.99;100.00;97354.22;5071704;28;20306;-78
2022/04/09 00:11:05;;;;;;;4.07;2.80;;;;;;;10.99;100.00;97353.41;5071429;28;20228;-79
2022/04/09 00:13:32;;;;;;;1.70;1.27;;;;;;;11.02;100.00;97348.28;5071531;28;20228;-78
2022/04/09 00:15:58;;;;;;;1.00;0.60;;;;;;;11.12;100.00;97347.44;5051465;28;20253;-78
2022/04/09 00:18:25;;;;;;;0.83;0.77;;;;;;;11.22;100.00;97343.88;5051745;28;20229;-79
2022/04/09 00:20:52;;;;;;;0.50;0.50;;;;;;;11.26;100.00;97347.59;5051385;28;20233;-78
2022/04/09 00:23:19;;;;;;;1.47;0.60;;;;;;;11.33;100.00;97342.75;5052141;28;20237;-78
2022/04/09 00:25:46;;;;;;;0.80;0.57;;;;;;;11.36;100.00;97332.25;5051437;28;20233;-78
2022/04/09 00:28:13;;;;;;;0.57;0.53;;;;;;;11.47;100.00;97332.97;5051676;28;20239;-78
2022/04/09 00:30:40;;;;;;;2.00;0.80;;;;;;;11.44;100.00;97334.31;5054419;28;20257;-78
2022/04/09 00:33:07;;;;;;;0.80;0.80;;;;;;;11.54;100.00;97324.59;5046528;28;20221;-78
2022/04/09 00:35:34;;;;;;;0.97;0.87;;;;;;;11.59;100.00;97311.94;5055894;28;20229;-78
2022/04/09 00:38:01;;;;;;;1.80;0.97;;;;;;;11.64;100.00;97313.78;5063106;28;20272;-78
2022/04/09 00:40:28;;;;;;;1.43;0.80;;;;;;;11.64;100.00;97319.16;5047390;28;20239;-78
2022/04/09 00:42:54;;;;;;;1.07;0.90;;;;;;;11.59;100.00;97321.88;5074492;28;20621;-78
2022/04/09 00:45:21;;;;;;;2.10;1.00;;;;;;;11.56;100.00;97325.13;5055733;28;20238;-78
2022/04/09 00:47:48;;;;;;;0.80;0.80;;;;;;;11.64;100.00;97319.16;5056352;28;20251;-78
2022/04/09 00:50:15;;;;;;;2.17;1.10;;;;;;;11.74;100.00;97311.84;5069656;28;20255;-79
2022/04/09 00:52:47;;;;;;;1.20;1.10;;;;;;;11.72;100.00;97313.16;5038086;28;20911;-78
2022/04/09 00:55:14;;;;;;;1.13;1.03;;;;;;;11.70;100.00;97301.94;5055701;28;20615;-78
2022/04/09 00:57:44;;;;;;;1.43;1.00;;;;;;;11.84;100.00;97290.28;5069052;28;20239;-79
2022/04/09 01:00:12;;;;;;;2.30;1.00;;;;;;;11.70;100.00;97275.91;5057778;28;20229;-79
2022/04/09 01:02:43;;;;;;;2.53;1.00;;;;;;;11.81;100.00;97282.00;5064497;28;20231;-78
2022/04/09 01:05:11;;;;;;;3.13;1.00;;;;;;;11.69;100.00;97273.50;5075088;28;20239;-78
2022/04/09 01:07:38;;;;;;;1.40;1.00;;;;;;;11.69;100.00;97265.47;5075309;28;20234;-79
2022/04/09 01:10:08;;;;;;;2.30;1.10;;;;;;;11.48;100.00;97252.25;5056898;28;20266;-78
2022/04/09 01:12:36;;;;;;;0.93;0.90;;;;;;;11.42;100.00;97239.97;5038543;28;20248;-78
2022/04/09 01:15:05;;;;;;;1.93;0.90;;;;;;;11.39;100.00;97237.03;5049336;28;20236;-78
2022/04/09 01:17:32;;;;;;;1.53;1.07;;;;;;;11.52;100.00;97228.38;5041746;28;20229;-78
2022/04/09 01:19:58;;;;;;;1.67;1.00;;;;;;;11.44;100.00;97227.06;5057699;28;20232;-78
2022/04/09 01:22:26;;;;;;;1.33;1.00;;;;;;;11.39;100.00;97213.72;5056648;28;20240;-78
2022/04/09 01:24:52;;;;;;;1.50;0.87;;;;;;;11.44;100.00;97211.00;5073069;28;20235;-78
2022/04/09 01:27:19;;;;;;;0.87;0.87;;;;;;;11.38;100.00;97217.47;5051071;28;20224;-78
2022/04/09 01:29:46;;;;;;;1.07;0.87;;;;;;;11.34;100.00;97223.69;5074810;28;20228;-78
2022/04/09 01:32:13;;;;;;;1.63;0.80;;;;;;;11.36;100.00;97216.19;5074565;28;20769;-78
2022/04/09 01:34:40;;;;;;;0.60;0.60;;;;;;;11.47;100.00;97215.81;5032304;28;20235;-78
2022/04/09 01:37:07;;;;;;;1.00;0.77;;;;;;;11.45;100.00;97217.97;5049002;28;20239;-78
2022/04/09 01:39:35;;;;;;;1.03;0.60;;;;;;;11.59;100.00;97218.09;5057183;28;20286;-78
2022/04/09 01:42:02;;;;;;;1.40;0.60;;;;;;;11.53;100.00;97218.41;5073216;28;20221;-78
2022/04/09 01:44:29;;;;;;;1.20;0.57;;;;;;;11.52;100.00;97214.97;5042701;28;20229;-78
2022/04/09 01:46:56;;;;;;;0.70;0.50;;;;;;;11.54;100.00;97211.97;5061756;28;20263;-79
2022/04/09 01:49:23;;;;;;;0.63;0.63;;;;;;;11.50;100.00;97195.66;5051094;28;20225;-78
2022/04/09 01:51:50;;;;;;;1.03;0.60;;;;;;;11.53;100.00;97191.59;5050864;28;20220;-78
2022/04/09 01:54:18;;;;;;;0.53;0.53;;;;;;;11.53;100.00;97170.16;5059800;28;20223;-78
2022/04/09 01:56:44;;;;;;;1.50;0.60;;;;;;;11.46;100.00;97168.63;5047422;28;20707;-78
2022/04/09 01:59:11;;;;;;;1.63;0.80;;;;;;;11.47;100.00;97166.75;5054623;28;20246;-78
2022/04/09 02:01:38;;;;;;;1.13;0.60;;;;;;;11.61;100.00;97172.22;5053161;28;20240;-78
2022/04/09 02:04:05;;;;;;;0.77;0.70;;;;;;;11.65;100.00;97157.97;5048206;28;20602;-78
2022/04/09 02:06:32;;;;;;;2.10;0.90;;;;;;;11.62;100.00;97160.41;5051832;28;20224;-78
2022/04/09 02:09:00;;;;;;;0.80;0.60;;;;;;;11.69;100.00;97147.44;5052122;28;20248;-78
2022/04/09 02:11:28;;;;;;;0.93;0.70;;;;;;;11.49;100.00;97148.47;5055540;28;20311;-78
2022/04/09 02:13:55;;;;;;;0.97;0.80;;;;;;;11.43;100.00;97138.91;5039891;28;20229;-78
2022/04/09 02:16:22;;;;;;;1.23;0.80;;;;;;;11.30;100.00;97139.56;5054800;28;20240;-78
2022/04/09 02:18:49;;;;;;;0.83;0.80;;;;;;;11.25;100.00;97143.09;5073948;28;20246;-78
2022/04/09 02:21:15;;;;;;;1.17;0.90;;;;;;;11.21;100.00;97149.31;5073745;28;20225;-78
2022/04/09 02:23:42;;;;;;;0.90;0.90;;;;;;;11.13;100.00;97145.38;5073933;28;20255;-78
2022/04/09 02:26:09;;;;;;;1.27;0.87;;;;;;;11.01;100.00;97145.72;5073501;28;20315;-78
2022/04/09 02:28:36;;;;;;;2.40;1.00;;;;;;;10.99;100.00;97157.81;5055937;28;20307;-79
2022/04/09 02:31:03;;;;;;;1.40;1.00;;;;;;;10.93;100.00;97149.03;5055926;28;20579;-79
2022/04/09 02:33:36;;;;;;;1.10;0.90;;;;;;;10.93;100.00;97145.56;5055435;28;20225;-78
2022/04/09 02:36:03;;;;;;;1.10;1.00;;;;;;;10.89;100.00;97129.25;5072860;28;20259;-77
2022/04/09 02:38:32;;;;;;;2.80;1.07;;;;;;;11.08;100.00;97123.19;5056068;28;20311;-79
2022/04/09 02:41:00;;;;;;;1.67;1.00;;;;;;;11.09;100.00;97117.53;5048405;28;20610;-79
2022/04/09 02:43:29;;;;;;;2.17;1.33;;;;;;;10.98;100.00;97108.00;5050122;28;20647;-78
2022/04/09 02:45:56;;;;;;;2.27;1.10;;;;;;;10.95;100.00;97112.06;5049300;28;20237;-78
2022/04/09 02:48:23;;;;;;;2.10;1.10;;;;;;;10.83;100.00;97116.16;5057935;28;20256;-78
2022/04/09 02:50:51;;;;;;;2.30;1.20;;;;;;;10.82;100.00;97120.75;5054675;28;20240;-79
2022/04/09 02:53:21;;;;;;;1.53;1.13;;;;;;;10.76;100.00;97124.53;5046062;28;20229;-79
2022/04/09 02:55:47;;;;;;;1.27;0.90;;;;;;;10.70;100.00;97116.81;5044314;28;20228;-78
2022/04/09 02:58:15;;;;;;;1.73;1.10;;;;;;;10.68;100.00;97129.72;5054695;28;20233;-78
2022/04/09 03:00:44;;;;;;;2.37;1.20;;;;;;;10.54;100.00;97133.00;5055248;28;20262;-78
2022/04/09 03:03:12;;;;;;;2.13;1.30;;;;;;;10.48;100.00;97130.66;5039573;28;20722;-78
2022/04/09 03:05:50;;;;;;;3.40;1.40;;;;;;;10.38;100.00;97118.16;5035119;28;20766;-78
2022/04/09 03:08:16;;;;;;;3.03;1.40;;;;;;;10.36;100.00;97106.91;5052756;28;20237;-79
2022/04/09 03:10:43;;;;;;;1.83;1.33;;;;;;;10.27;100.00;97111.25;5052895;28;20308;-79
2022/04/09 03:13:10;;;;;;;1.57;1.20;;;;;;;10.17;100.00;97113.22;5047212;28;20231;-78
2022/04/09 03:15:36;;;;;;;2.07;1.40;;;;;;;10.21;100.00;97104.38;5065064;28;20257;-79
2022/04/09 03:18:04;;;;;;;2.27;1.30;;;;;;;10.12;100.00;97100.66;5034416;28;20237;-78
2022/04/09 03:20:33;;;;;;;1.57;1.40;;;;;;;10.02;100.00;97098.03;5034952;28;20225;-78
2022/04/09 03:23:00;;;;;;;3.07;1.37;;;;;;;9.89;100.00;97101.31;5036928;28;20244;-79
2022/04/09 03:25:44;;;;;;;3.70;1.27;;;;;;;9.88;100.00;97100.53;5067562;28;20319;-78
2022/04/09 03:28:12;;;;;;;2.20;1.30;;;;;;;9.83;100.00;97105.91;5054518;28;20315;-78
2022/04/09 03:30:39;;;;;;;2.57;1.40;;;;;;;9.80;100.00;97127.03;5031551;28;20621;-79
2022/04/09 03:33:07;;;;;;;1.57;1.20;;;;;;;9.86;100.00;97120.56;5055137;28;20286;-79
2022/04/09 03:35:36;;;;;;;1.33;1.23;;;;;;;9.78;100.00;97124.63;5047914;28;20653;-79
2022/04/09 03:38:04;;;;;;;2.30;1.20;;;;;;;9.83;100.00;97121.94;5057575;28;20251;-78
2022/04/09 03:40:42;;;;;;;1.73;1.37;;;;;;;9.85;100.00;97133.16;5056858;28;20224;-78
2022/04/09 03:43:09;;;;;;;1.63;1.37;;;;;;;9.85;100.00;97151.06;5054271;28;20256;-80
2022/04/09 03:45:37;;;;;;;1.87;1.33;;;;;;;9.87;100.00;97171.13;5040965;28;20275;-78
2022/04/09 03:48:06;;;;;;;3.27;1.37;;;;;;;9.86;100.00;97176.72;5059807;28;20220;-78
2022/04/09 03:50:39;;;;;;;2.17;1.30;;;;;;;9.89;100.00;97171.63;5058175;28;20239;-78
2022/04/09 03:53:08;;;;;;;1.50;1.40;;;;;;;9.96;100.00;97182.03;5058605;28;20316;-78
2022/04/09 03:55:35;;;;;;;1.30;1.20;;;;;;;10.01;100.00;97190.06;5033865;28;20638;-78
2022/04/09 03:58:04;;;;;;;2.60;1.20;;;;;;;10.05;100.00;97199.13;5033995;28;20240;-79
2022/04/09 04:00:31;;;;;;;1.10;1.00;;;;;;;10.19;100.00;97215.41;5034275;28;20237;-78
2022/04/09 04:02:58;;;;;;;1.10;0.93;;;;;;;10.17;100.00;97236.31;5052186;28;20227;-79
2022/04/09 04:05:28;;;;;;;3.23;1.13;;;;;;;10.24;100.00;97283.09;5054032;28;20240;-78
2022/04/09 04:07:55;;;;;;;1.57;1.00;;;;;;;10.31;100.00;97306.91;5072021;28;20228;-78
2022/04/09 04:10:22;;;;;;;1.20;1.10;;;;;;;10.52;100.00;97340.53;5066399;28;20236;-79
2022/04/09 04:12:57;;;;;;;1.90;1.10;;;;;;;10.57;100.00;97369.97;5051671;28;20219;-79
2022/04/09 04:15:29;;;;;;;2.23;1.13;;;;;;;10.71;100.00;97362.13;5052987;28;20789;-78
2022/04/09 04:17:57;;;;;;;2.33;1.17;;;;;;;10.48;100.00;97342.16;5053294;28;20278;-78
2022/04/09 04:20:28;;;;;;;1.60;1.30;;;;;;;10.38;100.00;97342.97;5053043;28;20236;-78
2022/04/09 04:22:58;;;;;;;3.00;1.57;;;;;;;10.27;100.00;97345.97;5053367;28;20228;-78
2022/04/09 04:25:26;;;;;;;2.10;1.40;;;;;;;10.20;100.00;97353.47;5053583;28;20609;-78
2022/04/09 04:27:54;;;;;;;1.50;1.30;;;;;;;10.14;100.00;97352.66;5053637;28;20228;-78
2022/04/09 04:30:23;;;;;;;2.57;1.43;;;;;;;10.20;100.00;97359.63;5052707;28;20699;-79
2022/04/09 04:32:50;;;;;;;1.40;1.30;;;;;;;10.13;100.00;97357.19;5071188;28;20224;-79
2022/04/09 04:35:25;;;;;;;1.10;1.00;;;;;;;10.14;100.00;97371.38;5053415;28;20223;-78
2022/04/09 04:37:54;;;;;;;3.00;1.23;;;;;;;10.14;100.00;97366.84;5071181;28;20615;-79
2022/04/09 04:40:24;;;;;;;1.60;1.10;;;;;;;10.23;100.00;97380.50;5052846;28;20307;-78
2022/04/09 04:42:56;;;;;;;2.03;0.90;;;;;;;10.25;100.00;97391.75;5051688;28;20231;-78
2022/04/09 04:45:25;;;;;;;1.20;1.00;;;;;;;10.25;100.00;97396.28;5033365;28;20241;-78
2022/04/09 04:47:54;;;;;;;0.57;0.50;;;;;;;10.29;100.00;97402.69;5026154;28;20293;-78
2022/04/09 04:50:26;;;;;;;1.43;0.50;;;;;;;10.29;100.00;97410.72;5052268;28;20241;-78
2022/04/09 04:52:53;;;;;;;0.57;0.40;;;;;;;10.53;100.00;97417.91;5053092;28;20715;-78
2022/04/09 04:55:23;;;;;;;1.00;0.40;;;;;;;10.73;100.00;97432.31;5052957;28;20690;-78
2022/04/09 04:57:51;;;;;;;0.50;0.33;;;;;;;10.71;100.00;97437.91;5071047;28;20224;-79
2022/04/09 05:00:28;;;;;;;0.77;0.30;;;;;;;10.85;100.00;97433.59;5052791;28;20761;-78
2022/04/09 05:03:00;;;;;;;0.30;0.30;;;;;;;10.90;100.00;97443.47;5052986;28;20238;-78
2022/04/09 05:05:29;;;;;;;0.87;0.40;;;;;;;11.14;100.00;97420.31;5052658;28;20237;-78
2022/04/09 05:07:57;;;;;;;0.53;0.30;;;;;;;11.22;100.00;97403.66;5053036;28;20225;-78
2022/04/09 05:10:27;;;;;;;0.30;0.30;;;;;;;11.15;100.00;97405.03;5052351;28;20232;-79
2022/04/09 05:12:59;;;;;;;0.20;0.20;;;;;;;11.26;100.00;97414.63;5053136;28;20228;-78
2022/04/09 05:15:28;;;;;;;1.23;0.20;;;;;;;11.35;100.00;97410.28;5053033;28;20311;-78
2022/04/09 05:17:55;;;;;;;0.30;0.30;;;;;;;11.38;100.00;97415.88;5073858;28;20259;-78
2022/04/09 05:20:22;;;;;;;1.60;0.40;;;;;;;11.28;100.00;97426.69;5072263;28;20355;-78
2022/04/09 05:22:52;;;;;;;0.27;0.20;;;;;;;11.40;100.00;97434.38;5056111;28;20594;-78
2022/04/09 05:25:19;;;;;;;0.27;0.27;;;;;;;11.38;100.00;97452.63;5056339;28;20228;-78
2022/04/09 05:27:50;;;;;;;0.37;0.20;;;;;;;11.36;100.00;97462.81;5040595;28;20316;-78
2022/04/09 05:30:25;;;;;;;0.20;0.20;;;;;;;11.42;100.00;97481.28;5055564;28;20228;-78
2022/04/09 05:32:53;;;;;;;0.37;0.10;;;;;;;11.45;100.00;97496.81;5056469;28;20236;-77
2022/04/09 05:35:19;;;;;;;0.20;0.10;;;;;;;11.59;100.00;97490.84;5056138;28;20255;-78
2022/04/09 05:37:51;;;;;;;0.10;0.10;;;;;;;11.65;100.00;97500.47;5073055;28;20275;-78
2022/04/09 05:40:22;;;;;;;0.20;0.20;;;;;;;11.64;100.00;97521.13;5055418;28;20232;-78
2022/04/09 05:42:51;;;;;;;0.30;0.30;;;;;;;11.77;100.00;97538.50;5055709;28;20501;-78
2022/04/09 05:45:19;;;;;;;0.90;0.10;;;;;;;11.90;100.00;97546.72;5036377;28;20248;-78
2022/04/09 05:47:47;;;;;;;0.20;0.10;;;;;;;12.09;100.00;97532.66;5036059;28;20704;-78
2022/04/09 05:50:19;;;;;;;0.20;0.20;;;;;;;12.30;100.00;97544.84;5035496;28;20239;-78
2022/04/09 05:52:48;;;;;;;0.20;0.20;;;;;;;12.43;100.00;97538.03;5035870;28;20259;-78
2022/04/09 05:55:17;;;;;;;0.40;0.30;;;;;;;12.42;100.00;97539.09;5035740;28;20612;-78
2022/04/09 05:57:44;;;;;;;0.30;0.20;;;;;;;12.54;100.00;97548.41;5035227;28;20287;-78
2022/04/09 06:00:13;;;;;;;0.57;0.20;;;;;;;12.63;100.00;97553.97;5052534;28;20224;-78
2022/04/09 06:02:58;;;;;;;0.30;0.20;;;;;;;12.68;100.00;97545.88;5034447;28;20271;-78
2022/04/09 06:05:30;;;;;;;0.20;0.20;;;;;;;12.73;100.00;97578.88;5032605;28;20240;-78
2022/04/09 06:07:59;;;;;;;0.50;0.13;;;;;;;12.82;100.00;97589.00;5056020;28;20225;-78
2022/04/09 06:10:26;;;;;;;0.10;0.10;;;;;;;12.91;100.00;97595.34;5048057;28;20224;-79
2022/04/09 06:12:53;;;;;;;0.20;0.20;;;;;;;12.92;100.00;97596.97;5055324;28;20707;-79
2022/04/09 06:15:25;;;;;;;1.17;0.20;;;;;;;12.64;100.00;97591.31;5047980;28;20240;-78
2022/04/09 06:18:06;;;;;;;0.10;0.10;;;;;;;12.67;100.00;97612.22;5055363;28;20229;-78
2022/04/09 06:20:34;;;;;;;0.10;0.10;;;;;;;12.48;100.00;97616.66;5071644;28;20289;-80
2022/04/09 06:23:04;;;;;;;0.20;0.20;;;;;;;12.48;100.00;97645.41;5055480;28;20251;-78
2022/04/09 06:25:32;;;;;;;0.30;0.30;;;;;;;12.08;100.00;97668.75;5055418;28;20237;-78
2022/04/09 06:28:00;;;;;;;0.40;0.40;;;;;;;11.49;100.00;97669.47;5046497;28;20217;-78
2022/04/09 06:30:29;;;;;;;0.30;0.30;;;;;;;10.36;100.00;97735.16;5047675;28;20228;-78
2022/04/09 06:33:07;;;;;;;1.50;0.40;;;;;;;9.41;100.00;97741.63;5035195;28;20237;-78
2022/04/09 06:35:35;;;;;;;0.27;0.27;;;;;;;8.50;100.00;97762.19;5048832;28;20303;-79
2022/04/09 06:38:06;;;;;;;0.30;0.30;;;;;;;8.25;100.00;97792.06;5044673;28;20237;-79
2022/04/09 06:40:33;;;;;;;0.27;0.27;;;;;;;8.15;100.00;97805.28;5048583;28;20313;-78
2022/04/09 06:43:00;;;;;;;0.93;0.30;;;;;;;7.93;100.00;97826.59;5053041;28;20228;-78
2022/04/09 06:45:47;;;;;;;0.77;0.30;;;;;;;7.89;100.00;97844.94;5011844;28;20241;-78
2022/04/09 06:48:27;;;;;;;0.40;0.30;;;;;;;7.95;100.00;97864.47;5047332;28;20228;-78
2022/04/09 06:51:22;;;;;;;0.40;0.30;;;;;;;7.71;100.00;97909.19;5052381;28;20775;-78
2022/04/09 06:53:52;;;;;;;0.50;0.40;;;;;;;7.77;100.00;97910.06;5050869;28;20244;-78
2022/04/09 06:56:18;;;;;;;0.47;0.40;;;;;;;7.81;100.00;97912.00;5053866;28;20232;-78
2022/04/09 06:58:46;;;;;;;0.53;0.50;;;;;;;7.69;100.00;97918.47;5054386;28;20233;-79
2022/04/09 07:01:13;;;;;;;0.50;0.50;;;;;;;7.65;100.00;97931.47;5054491;28;20221;-79
2022/04/09 07:03:43;;;;;;;0.50;0.50;;;;;;;7.58;100.00;97938.81;5054456;28;20573;-77
2022/04/09 07:06:10;;;;;;;0.50;0.50;;;;;;;7.71;100.00;97953.69;5057675;28;20237;-78
2022/04/09 07:08:36;;;;;;;0.60;0.50;;;;;;;7.67;100.00;97956.03;5052395;28;20233;-78
2022/04/09 07:11:03;;;;;;;0.50;0.50;;;;;;;7.57;100.00;97981.69;5053253;28;20320;-78
2022/04/09 07:13:31;;;;;;;0.60;0.50;;;;;;;7.42;100.00;98007.03;5056607;28;20641;-77
2022/04/09 07:15:58;;;;;;;0.60;0.60;;;;;;;7.70;100.00;98000.06;5060569;28;20662;-78
2022/04/09 07:18:25;;;;;;;0.50;0.50;;;;;;;7.82;100.00;98003.47;5055729;28;20235;-79
2022/04/09 07:20:51;;;;;;;0.70;0.70;;;;;;;7.86;100.00;98024.06;5052217;28;20228;-79
2022/04/09 07:23:18;;;;;;;1.00;1.00;;;;;;;7.76;100.00;98028.41;5052575;28;20772;-77
2022/04/09 07:25:45;;;;;;;1.20;1.10;;;;;;;7.72;100.00;98040.59;5053878;28;20227;-79
2022/04/09 07:28:11;;;;;;;1.30;1.20;;;;;;;7.58;100.00;98055.28;5069970;28;20751;-78
2022/04/09 07:30:38;;;;;;;5.53;1.60;;;;;;;7.45;100.00;98051.84;5053724;28;20307;-79
2022/04/09 07:33:05;;;;;;;2.20;1.53;;;;;;;7.35;100.00;98094.28;5072105;28;20224;-78
2022/04/09 07:35:33;;;;;;;1.60;1.50;;;;;;;7.18;100.00;98090.75;5071703;28;20224;-79
2022/04/09 07:38:00;;;;;;;1.67;1.57;;;;;;;7.17;100.00;98083.78;5064685;28;20248;-81
2022/04/09 07:40:30;;;;;;;1.60;1.50;;;;;;;7.09;100.00;98103.59;5055710;28;20233;-79
2022/04/09 07:42:58;;;;;;;2.00;1.90;;;;;;;7.06;100.00;98096.09;5057675;28;20241;-79
2022/04/09 07:45:26;;;;;;;2.03;1.50;;;;;;;7.00;100.00;98120.97;5061560;28;20779;-80
2022/04/09 07:47:54;;;;;;;2.30;1.40;;;;;;;7.03;100.00;98157.81;5061382;28;20235;-78
2022/04/09 07:50:22;;;;;;;1.40;1.30;;;;;;;7.11;100.00;98167.28;5060845;28;20236;-79
2022/04/09 07:52:49;;;;;;;1.40;1.30;;;;;;;7.23;100.00;98149.44;5057096;28;20233;-79
2022/04/09 07:55:16;;;;;;;1.73;1.30;;;;;;;7.22;100.00;98163.00;5061041;28;20704;-79
2022/04/09 07:57:44;;;;;;;1.20;1.10;;;;;;;7.25;100.00;98160.66;5057494;28;20225;-78
2022/04/09 08:00:13;;;;;;;0.90;0.90;;;;;;;7.21;100.00;98185.34;5048761;28;20685;-77
2022/04/09 08:02:39;;;;;;;1.10;1.00;;;;;;;7.26;100.00;98174.81;5058538;28;20221;-80
2022/04/09 08:05:07;;;;;;;2.07;0.90;;;;;;;7.27;100.00;98171.09;5062115;28;20672;-79
2022/04/09 08:07:34;;;;;;;1.00;0.80;;;;;;;7.44;100.00;98202.13;5039038;28;20312;-79
2022/04/09 08:10:01;;;;;;;0.60;0.60;;;;;;;7.34;100.00;98204.56;5056845;28;20598;-78
2022/04/09 08:12:28;;;;;;;0.70;0.70;;;;;;;7.57;100.00;98202.91;5056261;28;20316;-78
2022/04/09 08:14:54;;;;;;;1.20;1.00;;;;;;;7.75;100.00;98232.06;5054077;28;20233;-78
2022/04/09 08:17:21;;;;;;;1.47;0.67;;;;;;;8.04;100.00;98235.59;5052287;28;20282;-78
2022/04/09 08:19:48;;;;;;;0.77;0.60;;;;;;;8.03;100.00;98247.31;5052486;28;20601;-78
2022/04/09 08:22:15;;;;;;;0.57;0.50;;;;;;;7.95;100.00;98240.50;5050375;28;20588;-78
2022/04/09 08:24:42;;;;;;;0.60;0.60;;;;;;;7.94;100.00;98230.88;5033563;28;20223;-80
2022/04/09 08:27:09;;;;;;;0.50;0.50;;;;;;;8.00;100.00;98253.13;5053425;28;20217;-79
2022/04/09 08:29:36;;;;;;;1.03;0.60;;;;;;;7.98;100.00;98240.00;5052837;28;20213;-78
2022/04/09 08:32:04;;;;;;;2.17;0.70;;;;;;;7.95;100.00;98251.97;5052961;28;20271;-79
2022/04/09 08:34:35;;;;;;;1.23;0.90;;;;;;;8.16;100.00;98249.72;5051300;28;20233;-79
2022/04/09 08:37:02;;;;;;;0.60;0.50;;;;;;;8.19;100.00;98246.56;5033671;28;20316;-78
2022/04/09 08:39:29;;;;;;;0.70;0.70;;;;;;;8.31;100.00;98234.00;5058938;28;20227;-77
2022/04/09 08:41:58;;;;;;;0.97;0.87;;;;;;;8.28;100.00;98224.59;5033212;28;20633;-77
2022/04/09 08:44:25;;;;;;;1.17;1.07;;;;;;;8.50;99.35;98235.44;5036004;28;20238;-78
2022/04/09 08:46:53;;;;;;;1.50;1.40;;;;;;;8.62;98.91;98238.88;5031019;28;20276;-78
2022/04/09 08:49:22;;;;;;;1.50;1.37;;;;;;;8.56;98.54;98245.16;5031219;28;21434;-79
2022/04/09 08:51:50;;;;;;;2.23;1.60;;;;;;;8.37;100.00;98249.91;5016612;28;20280;-79
2022/04/09 08:54:18;;;;;;;2.30;2.20;;;;;;;8.54;94.73;98252.59;5034722;28;20720;-78
2022/04/09 08:56:45;;;;;;;3.33;2.37;;;;;;;8.62;96.60;98270.91;5034750;28;20765;-78
2022/04/09 08:59:12;;;;;;;2.87;2.67;;;;;;;8.36;94.80;98274.13;5033049;28;20225;-78
2022/04/09 09:01:39;;;;;;;3.30;2.70;;;;;;;8.52;97.51;98280.59;5034725;28;20234;-79
2022/04/09 09:04:06;;;;;;;2.60;2.40;;;;;;;8.40;97.88;98292.09;5034183;28;20654;-79
2022/04/09 09:06:35;;;;;;;3.23;2.93;;;;;;;8.15;100.00;98312.13;5034694;28;20669;-79
2022/04/09 09:09:04;;;;;;;3.00;2.80;;;;;;;8.01;100.00;98334.75;5034608;28;20228;-78
2022/04/09 09:11:46;;;;;;;3.47;3.17;;;;;;;7.76;100.00;98325.16;5032713;28;20249;-78
2022/04/09 09:14:32;;;;;;;3.40;3.20;;;;;;;7.58;100.00;98341.28;5015900;28;20294;-78
2022/04/09 09:17:00;;;;;;;3.73;3.43;;;;;;;7.81;100.00;98375.94;5011528;28;20230;-77
2022/04/09 09:19:47;;;;;;;3.77;3.47;;;;;;;7.62;100.00;98376.28;5016147;28;20313;-78
2022/04/09 09:22:15;;;;;;;4.73;3.63;;;;;;;7.29;100.00;98382.13;5031864;28;20221;-79
2022/04/09 09:24:42;;;;;;;5.10;3.97;;;;;;;7.14;100.00;98366.56;5016982;28;20225;-78
2022/04/09 09:27:09;;;;;;;4.20;3.90;;;;;;;7.23;100.00;98388.38;5034156;28;20291;-79
2022/04/09 09:29:36;;;;;;;5.07;3.83;;;;;;;7.36;100.00;98378.34;5034337;28;20249;-79
2022/04/09 09:32:05;;;;;;;4.63;4.17;;;;;;;7.41;100.00;98381.13;5033925;28;20233;-78
2022/04/09 09:34:33;;;;;;;4.50;4.10;;;;;;;7.60;100.00;98381.84;5016642;28;20232;-79
2022/04/09 09:37:00;;;;;;;4.37;3.97;;;;;;;7.54;100.00;98372.09;5029894;28;20719;-78
2022/04/09 09:39:27;;;;;;;4.60;4.20;;;;;;;7.68;100.00;98372.69;5034270;28;20280;-78
2022/04/09 09:42:04;;;;;;;4.57;4.10;;;;;;;7.90;100.00;98390.53;5034516;28;20241;-79
2022/04/09 09:44:32;;;;;;;4.77;4.00;;;;;;;8.23;100.00;98405.13;5045804;28;20316;-78
2022/04/09 09:47:09;;;;;;;5.50;4.57;;;;;;;8.21;99.99;98407.25;5053498;28;20655;-78
2022/04/09 09:49:56;;;;;;;4.43;4.03;;;;;;;8.20;99.47;98402.94;5054153;28;20233;-79
2022/04/09 09:52:25;;;;;;;3.90;3.60;;;;;;;8.08;97.06;98407.47;5052913;28;20233;-79
2022/04/09 09:55:10;;;;;;;3.73;3.43;;;;;;;7.92;100.00;98409.81;5054279;28;20274;-79
2022/04/09 09:57:41;;;;;;;3.73;3.23;;;;;;;8.01;100.00;98425.44;5052984;28;20237;-79
2022/04/09 10:00:14;;;;;;;3.70;3.40;;;;;;;8.10;99.20;98440.88;5036050;28;20237;-78
2022/04/09 10:02:44;;;;;;;4.13;3.83;;;;;;;8.11;99.76;98449.69;5052615;28;20222;-78
2022/04/09 10:05:12;;;;;;;3.93;3.40;;;;;;;8.04;100.00;98448.97;5036186;28;20259;-78
2022/04/09 10:07:40;;;;;;;4.27;3.83;;;;;;;8.13;98.50;98455.59;5053212;28;20221;-78
2022/04/09 10:10:07;;;;;;;4.37;3.97;;;;;;;8.26;96.59;98447.34;5052748;28;20236;-78
2022/04/09 10:12:41;;;;;;;4.10;3.73;;;;;;;8.27;96.77;98456.97;5049817;28;20541;-78
2022/04/09 10:15:08;;;;;;;4.60;4.20;;;;;;;8.26;97.55;98460.69;5051389;28;20249;-78
2022/04/09 10:17:37;;;;;;;4.57;3.57;;;;;;;8.20;93.99;98464.31;5051982;28;20693;-78
2022/04/09 10:20:05;;;;;;;4.60;4.20;;;;;;;8.27;92.10;98486.34;5052534;28;20237;-79
2022/04/09 10:22:38;;;;;;;4.07;3.77;;;;;;;8.10;93.06;98470.22;5053257;28;20758;-78
2022/04/09 10:25:06;;;;;;;4.40;3.97;;;;;;;8.15;92.88;98472.19;5053027;28;20575;-78
2022/04/09 10:27:43;;;;;;;4.57;4.17;;;;;;;8.27;91.47;98479.16;5035578;28;20225;-78
2022/04/09 10:30:22;;;;;;;4.40;4.00;;;;;;;8.48;92.02;98488.47;5050981;28;20782;-78
2022/04/09 10:32:51;;;;;;;4.00;3.60;;;;;;;8.52;85.98;98488.81;5053230;28;20237;-78
2022/04/09 10:35:41;;;;;;;4.60;4.20;;;;;;;8.65;88.57;98483.22;5053201;28;20237;-78
2022/04/09 10:38:15;;;;;;;4.50;3.90;;;;;;;8.54;90.08;98484.06;5034948;28;20229;-78
2022/04/09 10:40:57;;;;;;;3.80;3.50;;;;;;;8.35;95.87;98510.06;5053130;28;20620;-78
2022/04/09 10:43:24;;;;;;;4.00;3.63;;;;;;;8.39;94.85;98512.03;5046819;28;20233;-78
2022/04/09 10:46:11;;;;;;;5.63;3.50;;;;;;;8.44;96.42;98510.50;5053213;28;20672;-78
2022/04/09 10:48:42;;;;;;;4.20;3.80;;;;;;;8.48;93.04;98520.50;5047972;28;20249;-78
2022/04/09 10:51:16;;;;;;;5.47;3.40;;;;;;;8.64;98.62;98541.13;5052408;28;20225;-78
2022/04/09 10:53:48;;;;;;;2.80;2.60;;;;;;;8.83;98.83;98547.16;5052836;28;20735;-78
2022/04/09 10:56:24;;;;;;;2.80;2.60;;;;;;;8.82;99.16;98548.19;5052144;28;20229;-78
2022/04/09 10:59:06;;;;;;;3.00;2.67;;;;;;;9.02;98.08;98556.66;5052462;28;20689;-78
2022/04/09 11:01:48;;;;;;;2.73;2.53;;;;;;;9.13;96.60;98555.81;5052612;28;20943;-78
2022/04/09 11:04:36;;;;;;;2.57;2.17;;;;;;;9.37;92.80;98558.44;5052161;28;20697;-78
2022/04/09 11:07:14;;;;;;;2.53;2.33;;;;;;;9.45;91.51;98556.19;5052573;28;20729;-78
2022/04/09 11:09:56;;;;;;;2.70;2.43;;;;;;;9.26;91.41;98538.69;5052458;28;20247;-78
2022/04/09 11:12:38;;;;;;;2.40;2.07;;;;;;;9.20;91.72;98528.94;5051398;28;20257;-78
2022/04/09 11:15:07;;;;;;;2.20;2.00;;;;;;;9.26;92.92;98547.53;5052812;28;20229;-78
2022/04/09 11:17:37;;;;;;;1.97;1.80;;;;;;;9.23;97.21;98555.22;5052301;28;20239;-78
2022/04/09 11:20:11;;;;;;;2.83;2.30;;;;;;;9.12;97.62;98556.06;5051835;28;20252;-78
2022/04/09 11:22:42;;;;;;;2.33;2.13;;;;;;;9.08;97.51;98558.38;5035001;28;20645;-78
2022/04/09 11:25:29;;;;;;;2.20;2.10;;;;;;;8.93;96.29;98566.06;5052997;28;20308;-78
2022/04/09 11:28:10;;;;;;;2.40;2.20;;;;;;;9.12;97.60;98564.06;5034804;28;20233;-79
2022/04/09 11:30:37;;;;;;;2.37;2.00;;;;;;;9.26;97.64;98570.78;5052117;28;20225;-79
2022/04/09 11:33:04;;;;;;;2.20;2.03;;;;;;;9.17;99.48;98577.53;5051409;28;20222;-78
2022/04/09 11:35:34;;;;;;;2.70;1.97;;;;;;;9.39;94.27;98583.03;5056341;28;20245;-78
2022/04/09 11:38:00;;;;;;;3.13;2.40;;;;;;;9.44;93.82;98575.94;5051420;28;20324;-78
2022/04/09 11:40:27;;;;;;;2.30;2.10;;;;;;;9.16;98.28;98582.06;5052217;28;20237;-78
2022/04/09 11:42:56;;;;;;;2.73;2.40;;;;;;;9.33;97.78;98586.69;5048875;28;20302;-78